createdAt,value
2019-05-16T00:01:20.222Z,10.90
2019-05-16T00:04:02.835Z,10.90
2019-05-16T00:06:44.565Z,10.90
2019-05-16T00:09:25.243Z,10.90
2019-05-16T00:12:08.574Z,10.90
2019-05-16T00:14:49.103Z,10.90
2019-05-16T00:17:30.035Z,10.80
2019-05-16T00:20:11.220Z,10.80
2019-05-16T00:22:54.616Z,10.80
2019-05-16T00:25:35.482Z,10.80
2019-05-16T00:28:18.040Z,10.80
2019-05-16T00:30:59.306Z,10.80
2019-05-16T00:33:40.057Z,10.80
2019-05-16T00:36:21.620Z,10.80
2019-05-16T00:39:04.782Z,10.80
2019-05-16T00:41:47.770Z,10.80
2019-05-16T00:44:28.159Z,10.80
2019-05-16T00:47:08.933Z,10.80
2019-05-16T00:49:49.324Z,10.80
2019-05-16T00:52:30.259Z,10.80
2019-05-16T00:55:11.055Z,10.80
2019-05-16T00:57:51.983Z,10.80
2019-05-16T01:00:33.047Z,10.80
2019-05-16T01:03:13.447Z,10.80
2019-05-16T01:05:54.038Z,10.90
2019-05-16T01:08:35.059Z,10.80
2019-05-16T01:11:18.344Z,10.80
2019-05-16T01:13:48.510Z,10.70
2019-05-16T01:16:38.129Z,10.70
2019-05-16T01:19:27.753Z,10.70
2019-05-16T01:21:58.811Z,10.70
2019-05-16T01:24:46.108Z,10.70
2019-05-16T01:27:34.112Z,10.70
2019-05-16T01:30:22.151Z,11.00
2019-05-16T01:33:03.200Z,10.90
2019-05-16T01:35:51.523Z,10.80
2019-05-16T01:38:32.223Z,10.80
2019-05-16T01:41:12.809Z,10.80
2019-05-16T01:43:54.049Z,10.80
2019-05-16T01:49:18.743Z,10.80
2019-05-16T01:52:00.219Z,10.80
2019-05-16T01:54:41.060Z,10.90
2019-05-16T01:57:21.952Z,10.80
2019-05-16T02:00:03.059Z,10.80
2019-05-16T02:02:44.275Z,10.70
2019-05-16T02:05:25.098Z,10.70
2019-05-16T02:08:05.578Z,10.70
2019-05-16T02:10:47.903Z,10.70
2019-05-16T02:13:29.453Z,10.60
2019-05-16T02:16:09.995Z,10.60
2019-05-16T02:18:38.717Z,10.60
2019-05-16T02:21:28.648Z,10.60
2019-05-16T02:24:18.285Z,10.60
2019-05-16T02:27:06.302Z,10.50
2019-05-16T02:29:55.411Z,10.50
2019-05-16T02:32:43.419Z,10.50
2019-05-16T02:35:23.913Z,10.40
2019-05-16T02:38:04.407Z,10.30
2019-05-16T02:40:45.233Z,10.30
2019-05-16T02:43:26.756Z,10.20
2019-05-16T02:46:07.612Z,10.20
2019-05-16T02:48:51.556Z,10.10
2019-05-16T02:51:21.204Z,10.10
2019-05-16T02:54:11.084Z,10.10
2019-05-16T02:57:01.192Z,10.00
2019-05-16T02:59:50.719Z,10.10
2019-05-16T03:02:41.584Z,10.10
2019-05-16T03:05:27.581Z,10.10
2019-05-16T03:08:15.665Z,10.10
2019-05-16T03:11:03.687Z,10.10
2019-05-16T03:13:51.687Z,10.00
2019-05-16T03:16:41.894Z,10.00
2019-05-16T03:19:31.112Z,9.90
2019-05-16T03:25:26.341Z,9.80
2019-05-16T03:28:14.358Z,9.80
2019-05-16T03:31:05.221Z,9.80
2019-05-16T03:33:59.666Z,9.80
2019-05-16T03:36:35.066Z,9.70
2019-05-16T03:39:16.262Z,9.70
2019-05-16T03:41:57.132Z,9.70
2019-05-16T03:44:40.894Z,9.70
2019-05-16T03:47:21.949Z,9.60
2019-05-16T03:49:51.709Z,9.70
2019-05-16T03:52:43.539Z,9.70
2019-05-16T03:55:32.561Z,9.70
2019-05-16T04:01:11.674Z,9.80
2019-05-16T04:04:01.781Z,9.80
2019-05-16T04:06:50.736Z,9.70
2019-05-16T04:09:41.188Z,9.70
2019-05-16T04:12:30.821Z,9.70
2019-05-16T04:15:21.427Z,9.80
2019-05-16T04:18:11.197Z,9.70
2019-05-16T04:21:01.024Z,9.70
2019-05-16T04:23:50.630Z,9.70
2019-05-16T04:26:40.934Z,9.70
2019-05-16T04:29:31.276Z,9.60
2019-05-16T04:32:20.546Z,9.70
2019-05-16T04:35:02.546Z,9.70
2019-05-16T04:37:42.784Z,9.70
2019-05-16T04:40:23.760Z,9.70
2019-05-16T04:43:04.739Z,9.70
2019-05-16T04:45:45.786Z,9.70
2019-05-16T04:48:26.595Z,9.70
2019-05-16T05:00:03.240Z,9.80
2019-05-16T05:24:22.228Z,9.90
2019-05-16T05:26:50.965Z,10.00
2019-05-16T05:29:20.187Z,10.00
2019-05-16T05:31:54.899Z,10.10
2019-05-16T05:34:19.962Z,10.10
2019-05-16T05:36:51.135Z,10.10
2019-05-16T05:39:20.052Z,10.20
2019-05-16T05:41:50.428Z,10.30
2019-05-16T05:44:20.338Z,10.40
2019-05-16T05:46:51.146Z,10.40
2019-05-16T05:49:20.458Z,10.40
2019-05-16T05:51:50.083Z,10.30
2019-05-16T05:54:20.354Z,10.30
2019-05-16T05:56:50.226Z,10.30
2019-05-16T05:59:20.121Z,10.30
2019-05-16T06:01:51.762Z,10.20
2019-05-16T06:04:19.876Z,10.20
2019-05-16T06:06:50.358Z,10.30
2019-05-16T06:09:28.296Z,10.30
2019-05-16T06:11:50.273Z,10.20
2019-05-16T06:14:21.220Z,10.20
2019-05-16T06:16:50.843Z,10.20
2019-05-16T06:19:20.390Z,10.40
2019-05-16T06:21:50.346Z,10.30
2019-05-16T06:24:20.031Z,10.20
2019-05-16T06:26:50.448Z,10.20
2019-05-16T06:29:20.395Z,10.20
2019-05-16T06:31:49.724Z,10.20
2019-05-16T06:34:20.774Z,10.20
2019-05-16T06:36:50.980Z,10.30
2019-05-16T06:39:20.126Z,10.30
2019-05-16T06:41:50.980Z,10.40
2019-05-16T06:44:20.302Z,10.50
2019-05-16T06:47:00.581Z,10.50
2019-05-16T06:49:20.473Z,10.50
2019-05-16T06:51:51.637Z,10.40
2019-05-16T06:54:20.820Z,10.50
2019-05-16T06:56:50.977Z,10.70
2019-05-16T06:59:20.332Z,10.70
2019-05-16T07:01:50.068Z,10.70
2019-05-16T07:04:20.032Z,10.60
2019-05-16T07:06:58.657Z,10.70
2019-05-16T07:09:20.649Z,10.80
2019-05-16T07:11:50.454Z,10.90
2019-05-16T07:14:22.914Z,11.10
2019-05-16T07:16:49.997Z,11.00
2019-05-16T07:19:20.761Z,11.00
2019-05-16T07:21:50.865Z,10.90
2019-05-16T07:24:19.916Z,10.90
2019-05-16T07:26:50.065Z,11.00
2019-05-16T07:29:20.215Z,11.10
2019-05-16T07:31:52.034Z,11.20
2019-05-16T07:34:20.638Z,11.30
2019-05-16T07:36:50.304Z,11.20
2019-05-16T07:39:19.917Z,11.20
2019-05-16T07:41:51.019Z,11.30
2019-05-16T07:44:20.846Z,11.30
2019-05-16T07:46:51.586Z,11.20
2019-05-16T07:49:20.575Z,11.40
2019-05-16T07:51:49.811Z,11.50
2019-05-16T07:54:21.169Z,11.60
2019-05-16T07:56:57.156Z,11.70
2019-05-16T07:59:20.433Z,11.70
2019-05-16T08:01:53.672Z,11.70
2019-05-16T08:04:20.139Z,11.70
2019-05-16T08:06:50.261Z,11.80
2019-05-16T08:09:21.126Z,11.90
2019-05-16T08:11:50.149Z,12.00
2019-05-16T08:14:21.294Z,12.20
2019-05-16T08:16:50.277Z,12.50
2019-05-16T08:19:21.136Z,12.30
2019-05-16T08:21:50.596Z,12.20
2019-05-16T08:24:20.524Z,12.30
2019-05-16T08:26:51.382Z,12.30
2019-05-16T08:29:22.015Z,12.50
2019-05-16T08:31:52.719Z,12.60
2019-05-16T08:34:21.103Z,12.40
2019-05-16T08:36:51.878Z,12.30
2019-05-16T08:39:21.455Z,12.30
2019-05-16T08:44:21.670Z,12.20
2019-05-16T08:46:57.103Z,12.30
2019-05-16T08:49:22.320Z,12.50
2019-05-16T08:54:21.790Z,12.80
2019-05-16T08:56:51.161Z,12.70
2019-05-16T08:59:21.539Z,12.60
2019-05-16T09:01:57.409Z,12.70
2019-05-16T09:06:52.598Z,13.00
2019-05-16T09:09:36.548Z,13.00
2019-05-16T09:10:19.012Z,12.80
2019-05-16T09:11:52.347Z,13.10
2019-05-16T09:14:21.790Z,13.00
2019-05-16T09:16:50.649Z,12.90
2019-05-16T09:18:30.746Z,12.50
2019-05-16T09:18:38.248Z,12.20
2019-05-16T09:19:19.441Z,13.20
2019-05-16T09:21:48.978Z,13.10
2019-05-16T09:24:18.166Z,13.20
2019-05-16T09:26:47.624Z,13.00
2019-05-16T09:29:16.913Z,13.10
2019-05-16T09:32:07.353Z,13.30
2019-05-16T09:34:17.560Z,13.50
2019-05-16T09:36:48.176Z,13.60
2019-05-16T09:39:17.495Z,13.40
2019-05-16T09:41:50.515Z,13.60
2019-05-16T09:44:18.311Z,13.50
2019-05-16T09:46:47.385Z,13.40
2019-05-16T09:49:23.906Z,13.60
2019-05-16T09:51:46.707Z,13.80
2019-05-16T09:54:17.910Z,13.90
2019-05-16T09:56:46.851Z,13.80
2019-05-16T09:59:17.469Z,13.90
2019-05-16T10:01:47.838Z,13.90
2019-05-16T10:04:17.580Z,13.80
2019-05-16T10:06:46.818Z,13.60
2019-05-16T10:09:17.555Z,13.50
2019-05-16T10:11:50.859Z,13.50
2019-05-16T10:14:17.323Z,13.40
2019-05-16T10:16:47.751Z,13.40
2019-05-16T10:19:16.952Z,13.20
2019-05-16T10:21:45.955Z,13.20
2019-05-16T10:24:15.015Z,13.20
2019-05-16T10:26:43.930Z,13.10
2019-05-16T10:29:12.792Z,13.10
2019-05-16T10:31:49.313Z,13.10
2019-05-16T10:34:12.131Z,13.00
2019-05-16T10:36:41.154Z,12.90
2019-05-16T10:39:09.919Z,12.90
2019-05-16T10:41:38.883Z,13.00
2019-05-16T10:44:07.775Z,12.80
2019-05-16T10:46:37.711Z,13.00
2019-05-16T10:49:06.814Z,13.00
2019-05-16T10:51:37.763Z,13.10
2019-05-16T10:54:13.562Z,12.90
2019-05-16T10:56:40.135Z,13.00
2019-05-16T10:59:46.693Z,12.80
2019-05-16T11:01:37.585Z,12.80
2019-05-16T11:04:07.538Z,12.80
2019-05-16T11:06:37.211Z,12.80
2019-05-16T11:09:07.022Z,12.70
2019-05-16T11:11:36.802Z,12.70
2019-05-16T11:14:08.975Z,12.80
2019-05-16T11:16:36.784Z,12.90
2019-05-16T11:19:17.465Z,13.10
2019-05-16T11:21:37.683Z,13.20
2019-05-16T11:24:28.977Z,13.20
2019-05-16T11:27:15.952Z,12.90
2019-05-16T11:30:04.534Z,12.80
2019-05-16T11:32:52.638Z,12.90
2019-05-16T11:35:40.934Z,13.00
2019-05-16T11:41:07.222Z,13.10
2019-05-16T11:43:47.481Z,13.20
2019-05-16T11:46:28.380Z,13.30
2019-05-16T11:49:08.921Z,13.50
2019-05-16T11:51:50.312Z,13.70
2019-05-16T11:54:31.009Z,13.90
2019-05-16T11:57:12.335Z,14.00
2019-05-16T11:59:53.136Z,14.20
2019-05-16T12:02:33.724Z,14.50
2019-05-16T12:05:14.249Z,14.70
2019-05-16T12:07:57.330Z,14.70
2019-05-16T12:10:40.767Z,14.60
2019-05-16T12:13:24.259Z,14.40
2019-05-16T12:15:59.603Z,14.50
2019-05-16T12:18:47.664Z,14.40
2019-05-16T12:21:35.648Z,14.60
2019-05-16T12:24:33.518Z,14.60
2019-05-16T12:27:13.623Z,14.50
2019-05-16T12:30:01.922Z,14.00
2019-05-16T12:32:51.897Z,13.90
2019-05-16T12:35:40.121Z,13.60
2019-05-16T12:38:28.150Z,13.60
2019-05-16T12:41:09.465Z,13.40
2019-05-16T12:43:53.607Z,13.30
2019-05-16T12:46:33.132Z,13.10
2019-05-16T12:49:14.413Z,13.00
2019-05-16T12:51:56.948Z,13.10
2019-05-16T12:54:37.664Z,13.00
2019-05-16T12:57:18.833Z,12.70
2019-05-16T13:00:00.257Z,12.70
2019-05-16T13:02:41.199Z,12.80
2019-05-16T13:05:22.182Z,12.70
2019-05-16T13:10:47.030Z,12.80
2019-05-16T13:13:28.027Z,12.80
2019-05-16T13:15:56.860Z,12.80
2019-05-16T13:18:47.355Z,12.80
2019-05-16T13:21:34.841Z,12.70
2019-05-16T13:24:22.895Z,12.80
2019-05-16T13:27:11.036Z,12.60
2019-05-16T13:29:59.051Z,12.60
2019-05-16T13:32:47.261Z,12.70
2019-05-16T13:35:37.091Z,12.70
2019-05-16T13:38:27.979Z,12.70
2019-05-16T13:41:18.000Z,12.80
2019-05-16T13:43:45.862Z,12.80
2019-05-16T13:46:34.399Z,12.90
2019-05-16T13:49:22.599Z,13.00
2019-05-16T13:52:10.641Z,13.30
2019-05-16T13:54:58.647Z,13.20
2019-05-16T14:00:41.666Z,13.20
2019-05-16T14:03:29.896Z,13.20
2019-05-16T14:06:18.692Z,13.20
2019-05-16T14:09:08.061Z,13.20
2019-05-16T14:11:56.481Z,13.10
2019-05-16T14:14:47.852Z,13.30
2019-05-16T14:17:37.040Z,13.20
2019-05-16T14:20:25.708Z,13.10
2019-05-16T14:23:13.706Z,13.00
2019-05-16T14:26:11.868Z,12.90
2019-05-16T14:28:59.934Z,13.00
2019-05-16T14:31:49.543Z,12.90
2019-05-16T14:34:38.393Z,13.00
2019-05-16T14:37:27.655Z,13.10
2019-05-16T14:40:08.633Z,13.20
2019-05-16T14:42:49.500Z,13.10
2019-05-16T14:45:29.096Z,13.10
2019-05-16T14:48:18.900Z,13.20
2019-05-16T14:54:01.284Z,12.90
2019-05-16T14:56:49.401Z,12.90
2019-05-16T14:59:37.420Z,12.60
2019-05-16T15:02:27.596Z,12.60
2019-05-16T15:05:15.386Z,12.60
2019-05-16T15:08:03.514Z,12.50
2019-05-16T15:10:51.577Z,12.30
2019-05-16T15:13:39.831Z,12.30
2019-05-16T15:16:28.008Z,12.30
2019-05-16T15:19:17.540Z,12.40
2019-05-16T15:22:07.828Z,12.40
2019-05-16T15:24:59.071Z,12.50
2019-05-16T15:27:47.603Z,12.50
2019-05-16T15:30:38.993Z,12.30
2019-05-16T15:33:27.179Z,12.20
2019-05-16T15:36:16.735Z,12.10
2019-05-16T15:39:08.118Z,12.20
2019-05-16T15:41:48.479Z,12.20
2019-05-16T15:44:29.622Z,12.10
2019-05-16T15:47:10.609Z,12.00
2019-05-16T15:49:52.081Z,12.00
2019-05-16T15:52:32.815Z,12.00
2019-05-16T15:55:13.900Z,11.90
2019-05-16T15:57:54.363Z,11.70
2019-05-16T16:00:37.591Z,11.80
2019-05-16T16:03:17.687Z,11.70
2019-05-16T16:05:58.218Z,11.60
2019-05-16T16:08:39.786Z,11.50
2019-05-16T16:11:20.168Z,11.50
2019-05-16T16:14:01.010Z,11.60
2019-05-16T16:16:29.843Z,11.60
2019-05-16T16:19:17.881Z,11.60
2019-05-16T16:21:47.277Z,11.50
2019-05-16T16:27:36.260Z,11.50
2019-05-16T16:30:24.623Z,11.40
2019-05-16T16:33:22.596Z,11.40
2019-05-16T16:36:02.979Z,11.40
2019-05-16T16:38:51.204Z,11.30
2019-05-16T16:41:31.707Z,11.30
2019-05-16T16:44:12.324Z,11.30
2019-05-16T16:46:52.968Z,11.20
2019-05-16T16:52:17.567Z,11.10
2019-05-16T16:54:58.113Z,11.10
2019-05-16T16:57:39.368Z,11.10
2019-05-16T17:00:22.859Z,11.00
2019-05-16T17:03:09.271Z,11.00
2019-05-16T17:05:46.796Z,11.00
2019-05-16T17:08:27.463Z,10.90
2019-05-16T17:11:08.243Z,10.90
2019-05-16T17:13:49.090Z,10.90
2019-05-16T17:16:30.029Z,10.90
2019-05-16T17:19:11.245Z,10.90
2019-05-16T17:22:06.382Z,10.80
2019-05-16T17:24:36.501Z,10.80
2019-05-16T17:27:17.099Z,10.80
2019-05-16T17:30:00.719Z,10.80
2019-05-16T17:32:41.204Z,10.90
2019-05-16T17:35:22.303Z,10.80
2019-05-16T17:38:03.343Z,10.90
2019-05-16T17:40:46.444Z,10.90
2019-05-16T17:43:27.181Z,10.80
2019-05-16T17:46:37.189Z,10.90
2019-05-16T17:49:09.754Z,10.80
2019-05-16T17:51:50.669Z,10.80
2019-05-16T17:54:31.424Z,10.80
2019-05-16T17:59:57.436Z,10.60
2019-05-16T18:02:37.887Z,10.60
2019-05-16T18:05:19.016Z,10.70
2019-05-16T18:07:59.886Z,10.60
2019-05-16T18:10:40.577Z,10.60
2019-05-16T18:13:21.588Z,10.60
2019-05-16T18:16:02.736Z,10.60
2019-05-16T18:18:43.443Z,10.50
2019-05-16T18:21:24.523Z,10.50
2019-05-16T18:24:05.896Z,10.40
2019-05-16T18:26:46.412Z,10.50
2019-05-16T18:29:27.793Z,10.50
2019-05-16T18:32:08.438Z,10.40
2019-05-16T18:34:49.309Z,10.40
2019-05-16T18:37:33.239Z,10.40
2019-05-16T18:40:13.570Z,10.50
2019-05-16T18:42:57.080Z,10.50
2019-05-16T18:45:37.816Z,10.40
2019-05-16T18:48:19.104Z,10.50
2019-05-16T18:51:00.152Z,10.40
2019-05-16T18:53:41.029Z,10.30
2019-05-16T18:56:21.859Z,10.30
2019-05-16T18:59:03.318Z,10.30
2019-05-16T19:01:46.844Z,10.20
2019-05-16T19:04:27.155Z,10.20
2019-05-16T19:07:08.020Z,10.20
2019-05-16T19:09:49.198Z,10.20
2019-05-16T19:12:30.258Z,10.20
2019-05-16T19:15:10.726Z,10.20
2019-05-16T19:17:51.700Z,10.20
2019-05-16T19:20:32.529Z,10.20
2019-05-16T19:23:13.748Z,10.30
2019-05-16T19:25:56.499Z,10.20
2019-05-16T19:28:37.325Z,10.20
2019-05-16T19:34:03.961Z,10.20
2019-05-16T19:36:46.604Z,10.20
2019-05-16T19:39:28.766Z,10.20
2019-05-16T19:42:09.668Z,10.20
2019-05-16T19:44:51.090Z,10.20
2019-05-16T19:47:37.019Z,10.20
2019-05-16T19:50:14.640Z,10.20
2019-05-16T19:52:56.676Z,10.20
2019-05-16T19:55:38.027Z,10.20
2019-05-16T19:58:18.723Z,10.20
2019-05-16T20:00:59.290Z,10.20
2019-05-16T20:03:40.714Z,10.20
2019-05-16T20:06:21.912Z,10.20
2019-05-16T20:09:02.582Z,10.20
2019-05-16T20:11:46.239Z,10.20
2019-05-16T20:14:27.323Z,10.20
2019-05-16T20:17:08.885Z,10.10
2019-05-16T20:19:50.221Z,10.20
2019-05-16T20:22:31.169Z,10.30
2019-05-16T20:25:11.683Z,10.20
2019-05-16T20:27:52.143Z,10.20
2019-05-16T20:30:32.958Z,10.20
2019-05-16T20:33:13.565Z,10.20
2019-05-16T20:35:54.667Z,10.20
2019-05-16T20:41:18.469Z,10.20
2019-05-16T20:43:58.922Z,10.30
2019-05-16T20:46:39.636Z,10.20
2019-05-16T20:49:20.566Z,10.20
2019-05-16T20:52:01.075Z,10.20
2019-05-16T20:54:42.383Z,10.20
2019-05-16T20:57:26.638Z,10.20
2019-05-16T21:00:07.707Z,10.20
2019-05-16T21:02:49.498Z,10.20
2019-05-16T21:05:30.473Z,10.30
2019-05-16T21:07:59.463Z,10.20
2019-05-16T21:10:47.492Z,10.20
2019-05-16T21:16:42.788Z,10.20
2019-05-16T21:19:30.921Z,10.20
2019-05-16T21:25:13.061Z,10.20
2019-05-16T21:28:01.117Z,10.10
2019-05-16T21:30:49.184Z,10.10
2019-05-16T21:33:37.386Z,10.10
2019-05-16T21:36:27.407Z,10.20
2019-05-16T21:38:56.176Z,10.10
2019-05-16T21:41:44.226Z,10.10
2019-05-16T21:44:25.982Z,10.10
2019-05-16T21:47:07.516Z,10.10
2019-05-16T21:49:48.481Z,10.10
2019-05-16T21:52:29.810Z,10.10
2019-05-16T21:55:10.962Z,10.10
2019-05-16T21:57:51.382Z,10.10
2019-05-16T22:00:38.327Z,10.10
2019-05-16T22:03:19.535Z,10.10
2019-05-16T22:06:01.391Z,10.10
2019-05-16T22:08:42.305Z,10.10
2019-05-16T22:11:23.248Z,10.00
2019-05-16T22:14:06.394Z,10.00
2019-05-16T22:16:47.170Z,10.00
2019-05-16T22:19:16.493Z,10.00
2019-05-16T22:21:45.407Z,10.00
2019-05-16T22:24:14.387Z,10.00
2019-05-16T22:27:02.380Z,9.90
2019-05-16T22:29:50.448Z,9.90
2019-05-16T22:32:19.286Z,9.90
2019-05-16T22:35:07.982Z,9.90
2019-05-16T22:37:59.244Z,9.90
2019-05-16T22:40:46.107Z,9.90
2019-05-16T22:43:26.771Z,9.90
2019-05-16T22:46:09.978Z,9.90
2019-05-16T22:48:50.331Z,9.90
2019-05-16T22:51:38.457Z,9.90
2019-05-16T22:54:26.508Z,9.90
2019-05-16T22:56:57.168Z,9.90
2019-05-16T23:02:33.007Z,9.70
2019-05-16T23:05:21.168Z,9.70
2019-05-16T23:08:02.103Z,9.70
2019-05-16T23:10:20.317Z,9.70
2019-05-16T23:13:08.390Z,9.70
2019-05-16T23:15:57.187Z,9.70
2019-05-16T23:18:46.482Z,9.70
2019-05-16T23:24:41.646Z,9.70
2019-05-16T23:27:29.613Z,9.80
2019-05-16T23:30:17.612Z,9.80
2019-05-16T23:33:07.111Z,9.70
2019-05-16T23:38:49.319Z,9.80
2019-05-16T23:41:37.478Z,9.70
2019-05-16T23:44:18.471Z,9.80
2019-05-16T23:46:58.890Z,9.80
2019-05-16T23:49:39.279Z,9.80
2019-05-16T23:52:19.980Z,9.80
2019-05-16T23:55:01.023Z,9.80
2019-05-16T23:57:41.980Z,9.80
